SBSP

Sao Paulo/Congonhas Airport

Airport
ICAO code
SBSP
IATA Code
CGH
Summary
ICAO Region
CARSAM
ICAO Territory
Location

Congonhas, São Paulo

Serving
São Paulo
Elevation
2631 ft
Coordinates
23° 37' 34" S , 46° 39' 23" W
KCC
Metar
Observation
SBSP 280700Z AUTO 06005KT 020V110 CAVOK 21/17 Q1016
Station
Sao Paulo/Congonhas Aeroporto
Date/Time
2023-01-28 07:00:00
Wind direction
60°
Wind speed
05 kts
Lowest cloud amount
clouds and visibility OK
Temperature
21°C
Dew point
17°C
Humidity
77%
QNH
1016 hPa
Weather condition
n/a

São Paulo/Congonhas Airport Portuguese pronunciation: is one of the four commercial airports serving São Paulo, Brazil.

Climatology

Humid “subtropical” climate (Köppen climate classification Cfa)

Runways

Designator Length Width Surface Rops
17L/35R 1435 45 ASP Yes/Yes
17R/35L 1940 45 ASP Yes/Yes

Airport map

Aerial View

SKYbrary Partners:

Safety knowledge contributed by: